sensor_id;sensor_type;location;lat;lon;timestamp;pressure;altitude;pressure_sealevel;temperature;humidity
27425;BME280;15244;49.088;11.886;2022-07-22T00:01:56;96219.56;;;25.61;45.29
27425;BME280;15244;49.088;11.886;2022-07-22T00:06:58;96218.63;;;25.55;45.09
27425;BME280;15244;49.088;11.886;2022-07-22T00:12:01;96206.88;;;25.50;45.41
27425;BME280;15244;49.088;11.886;2022-07-22T00:17:02;96212.31;;;25.45;45.68
27425;BME280;15244;49.088;11.886;2022-07-22T00:22:04;96209.22;;;25.43;45.69
27425;BME280;15244;49.088;11.886;2022-07-22T00:27:06;96205.19;;;25.44;45.61
27425;BME280;15244;49.088;11.886;2022-07-22T00:32:08;96199.00;;;25.40;45.78
27425;BME280;15244;49.088;11.886;2022-07-22T00:37:11;96197.13;;;25.37;45.76
27425;BME280;15244;49.088;11.886;2022-07-22T00:42:12;96195.59;;;25.36;45.88
27425;BME280;15244;49.088;11.886;2022-07-22T00:47:14;96184.13;;;25.34;45.83
27425;BME280;15244;49.088;11.886;2022-07-22T00:52:18;96179.50;;;25.30;45.76
27425;BME280;15244;49.088;11.886;2022-07-22T00:57:20;96183.53;;;25.29;45.64
27425;BME280;15244;49.088;11.886;2022-07-22T01:02:22;96186.03;;;25.27;46.02
27425;BME280;15244;49.088;11.886;2022-07-22T01:07:23;96185.53;;;25.29;46.09
27425;BME280;15244;49.088;11.886;2022-07-22T01:12:25;96189.88;;;25.30;46.15
27425;BME280;15244;49.088;11.886;2022-07-22T01:17:27;96182.75;;;25.29;46.03
27425;BME280;15244;49.088;11.886;2022-07-22T01:22:32;96184.78;;;25.19;45.72
27425;BME280;15244;49.088;11.886;2022-07-22T01:27:34;96179.69;;;25.08;45.26
27425;BME280;15244;49.088;11.886;2022-07-22T01:32:36;96189.78;;;24.97;45.69
27425;BME280;15244;49.088;11.886;2022-07-22T01:37:39;96184.41;;;24.84;45.82
27425;BME280;15244;49.088;11.886;2022-07-22T01:42:40;96187.63;;;24.73;46.07
27425;BME280;15244;49.088;11.886;2022-07-22T01:47:42;96184.41;;;24.65;46.19
27425;BME280;15244;49.088;11.886;2022-07-22T01:52:45;96176.34;;;24.58;46.39
27425;BME280;15244;49.088;11.886;2022-07-22T01:57:47;96172.63;;;24.52;46.40
27425;BME280;15244;49.088;11.886;2022-07-22T02:02:58;96174.03;;;24.48;46.62
27425;BME280;15244;49.088;11.886;2022-07-22T02:08:01;96173.84;;;24.42;46.50
27425;BME280;15244;49.088;11.886;2022-07-22T02:13:07;96168.13;;;24.36;46.58
27425;BME280;15244;49.088;11.886;2022-07-22T02:18:11;96169.06;;;24.33;46.51
27425;BME280;15244;49.088;11.886;2022-07-22T02:23:16;96172.44;;;24.28;46.67
27425;BME280;15244;49.088;11.886;2022-07-22T02:28:17;96173.84;;;24.23;46.82
27425;BME280;15244;49.088;11.886;2022-07-22T02:33:19;96170.44;;;24.19;46.86
27425;BME280;15244;49.088;11.886;2022-07-22T02:38:21;96170.28;;;24.14;46.98
27425;BME280;15244;49.088;11.886;2022-07-22T02:43:23;96175.22;;;24.10;47.43
27425;BME280;15244;49.088;11.886;2022-07-22T02:48:26;96168.72;;;24.04;47.47
27425;BME280;15244;49.088;11.886;2022-07-22T02:53:28;96172.88;;;23.99;47.43
27425;BME280;15244;49.088;11.886;2022-07-22T02:58:32;96175.03;;;23.95;47.26
27425;BME280;15244;49.088;11.886;2022-07-22T03:03:34;96177.97;;;23.91;47.38
27425;BME280;15244;49.088;11.886;2022-07-22T03:08:37;96178.91;;;23.88;47.31
27425;BME280;15244;49.088;11.886;2022-07-22T03:13:39;96174.72;;;23.84;47.23
27425;BME280;15244;49.088;11.886;2022-07-22T03:18:40;96171.28;;;23.79;47.22
27425;BME280;15244;49.088;11.886;2022-07-22T03:23:42;96171.91;;;23.74;47.26
27425;BME280;15244;49.088;11.886;2022-07-22T03:28:44;96176.50;;;23.68;47.29
27425;BME280;15244;49.088;11.886;2022-07-22T03:33:46;96171.97;;;23.62;47.68
27425;BME280;15244;49.088;11.886;2022-07-22T03:38:48;96167.78;;;23.57;47.98
27425;BME280;15244;49.088;11.886;2022-07-22T03:43:50;96181.41;;;23.55;48.16
27425;BME280;15244;49.088;11.886;2022-07-22T03:48:53;96175.97;;;23.51;48.32
27425;BME280;15244;49.088;11.886;2022-07-22T03:53:55;96176.44;;;23.50;48.51
27425;BME280;15244;49.088;11.886;2022-07-22T03:58:57;96175.81;;;23.46;48.12
27425;BME280;15244;49.088;11.886;2022-07-22T04:04:00;96174.25;;;23.45;48.17
27425;BME280;15244;49.088;11.886;2022-07-22T04:09:11;96180.28;;;23.43;48.71
27425;BME280;15244;49.088;11.886;2022-07-22T04:14:13;96185.38;;;23.45;49.11
27425;BME280;15244;49.088;11.886;2022-07-22T04:19:18;96190.03;;;23.48;49.06
27425;BME280;15244;49.088;11.886;2022-07-22T04:24:33;96182.78;;;23.50;49.77
27425;BME280;15244;49.088;11.886;2022-07-22T04:29:35;96184.63;;;23.53;49.68
27425;BME280;15244;49.088;11.886;2022-07-22T04:34:37;96188.06;;;23.57;49.75
27425;BME280;15244;49.088;11.886;2022-07-22T04:39:39;96183.59;;;23.60;49.96
27425;BME280;15244;49.088;11.886;2022-07-22T04:44:41;96176.34;;;23.63;50.02
27425;BME280;15244;49.088;11.886;2022-07-22T04:49:43;96175.41;;;23.66;50.10
27425;BME280;15244;49.088;11.886;2022-07-22T04:54:46;96170.44;;;23.70;50.20
27425;BME280;15244;49.088;11.886;2022-07-22T04:59:48;96170.34;;;23.73;50.13
27425;BME280;15244;49.088;11.886;2022-07-22T05:04:50;96166.66;;;23.76;50.41
27425;BME280;15244;49.088;11.886;2022-07-22T05:09:59;96175.63;;;23.81;50.46
27425;BME280;15244;49.088;11.886;2022-07-22T05:15:03;96178.75;;;23.83;50.48
27425;BME280;15244;49.088;11.886;2022-07-22T05:20:06;96176.13;;;23.88;50.50
27425;BME280;15244;49.088;11.886;2022-07-22T05:25:09;96177.53;;;23.93;50.55
27425;BME280;15244;49.088;11.886;2022-07-22T05:30:12;96184.94;;;23.96;50.72
27425;BME280;15244;49.088;11.886;2022-07-22T05:35:22;96179.22;;;23.99;50.66
27425;BME280;15244;49.088;11.886;2022-07-22T05:40:25;96180.19;;;24.06;50.65
27425;BME280;15244;49.088;11.886;2022-07-22T05:45:31;96176.47;;;24.09;50.87
27425;BME280;15244;49.088;11.886;2022-07-22T05:50:33;96178.16;;;24.15;50.75
27425;BME280;15244;49.088;11.886;2022-07-22T05:55:35;96177.09;;;24.22;50.94
27425;BME280;15244;49.088;11.886;2022-07-22T06:00:40;96181.59;;;24.29;50.82
27425;BME280;15244;49.088;11.886;2022-07-22T06:05:42;96176.50;;;24.36;50.80
27425;BME280;15244;49.088;11.886;2022-07-22T06:10:48;96186.53;;;24.43;50.89
27425;BME280;15244;49.088;11.886;2022-07-22T06:15:51;96180.22;;;24.52;50.96
27425;BME280;15244;49.088;11.886;2022-07-22T06:20:53;96180.69;;;24.59;50.69
27425;BME280;15244;49.088;11.886;2022-07-22T06:25:55;96182.38;;;24.66;50.96
27425;BME280;15244;49.088;11.886;2022-07-22T06:31:07;96183.00;;;24.70;50.72
27425;BME280;15244;49.088;11.886;2022-07-22T06:36:09;96187.31;;;24.80;50.67
27425;BME280;15244;49.088;11.886;2022-07-22T06:41:12;96194.44;;;24.91;50.51
27425;BME280;15244;49.088;11.886;2022-07-22T06:46:27;96195.50;;;25.02;50.24
27425;BME280;15244;49.088;11.886;2022-07-22T06:51:30;96197.03;;;25.13;50.02
27425;BME280;15244;49.088;11.886;2022-07-22T06:56:33;96188.38;;;25.20;49.65
27425;BME280;15244;49.088;11.886;2022-07-22T07:01:39;96188.31;;;25.29;49.45
27425;BME280;15244;49.088;11.886;2022-07-22T07:06:41;96183.50;;;25.39;49.14
27425;BME280;15244;49.088;11.886;2022-07-22T07:12:09;96184.41;;;25.45;48.83
27425;BME280;15244;49.088;11.886;2022-07-22T07:17:29;96183.59;;;25.54;48.99
27425;BME280;15244;49.088;11.886;2022-07-22T07:22:32;96182.31;;;25.64;49.04
27425;BME280;15244;49.088;11.886;2022-07-22T07:27:34;96183.81;;;25.74;48.55
27425;BME280;15244;49.088;11.886;2022-07-22T07:32:39;96179.59;;;25.88;47.56
27425;BME280;15244;49.088;11.886;2022-07-22T07:37:41;96187.75;;;26.01;47.33
27425;BME280;15244;49.088;11.886;2022-07-22T07:42:43;96165.63;;;26.12;47.53
27425;BME280;15244;49.088;11.886;2022-07-22T07:47:52;96162.09;;;26.26;46.29
27425;BME280;15244;49.088;11.886;2022-07-22T07:52:55;96165.88;;;26.38;45.93
27425;BME280;15244;49.088;11.886;2022-07-22T07:57:58;96164.84;;;26.50;45.51
27425;BME280;15244;49.088;11.886;2022-07-22T08:03:03;96161.81;;;26.63;44.56
27425;BME280;15244;49.088;11.886;2022-07-22T08:08:09;96160.00;;;26.75;44.33
27425;BME280;15244;49.088;11.886;2022-07-22T08:13:17;96150.56;;;26.87;44.27
27425;BME280;15244;49.088;11.886;2022-07-22T08:18:33;96161.47;;;27.00;44.59
27425;BME280;15244;49.088;11.886;2022-07-22T08:23:35;96154.31;;;27.14;44.15
27425;BME280;15244;49.088;11.886;2022-07-22T08:28:38;96158.41;;;27.28;43.73
27425;BME280;15244;49.088;11.886;2022-07-22T08:33:40;96149.88;;;27.37;43.09
27425;BME280;15244;49.088;11.886;2022-07-22T08:38:42;96145.22;;;27.49;41.90
27425;BME280;15244;49.088;11.886;2022-07-22T08:43:45;96144.84;;;27.56;41.48
27425;BME280;15244;49.088;11.886;2022-07-22T08:48:48;96132.44;;;27.62;41.29
27425;BME280;15244;49.088;11.886;2022-07-22T08:54:15;96136.41;;;27.71;40.41
27425;BME280;15244;49.088;11.886;2022-07-22T08:59:17;96135.81;;;27.81;40.92
27425;BME280;15244;49.088;11.886;2022-07-22T09:04:19;96138.47;;;27.91;40.00
27425;BME280;15244;49.088;11.886;2022-07-22T09:09:32;96142.94;;;28.03;40.76
27425;BME280;15244;49.088;11.886;2022-07-22T09:15:06;96138.78;;;28.13;39.96
27425;BME280;15244;49.088;11.886;2022-07-22T09:20:19;96138.41;;;28.26;40.30
27425;BME280;15244;49.088;11.886;2022-07-22T09:26:02;96134.97;;;28.37;39.53
27425;BME280;15244;49.088;11.886;2022-07-22T09:31:04;96129.31;;;28.51;39.62
27425;BME280;15244;49.088;11.886;2022-07-22T09:36:11;96123.84;;;28.68;39.46
27425;BME280;15244;49.088;11.886;2022-07-22T09:41:13;96115.13;;;28.87;39.61
27425;BME280;15244;49.088;11.886;2022-07-22T09:46:33;96103.50;;;29.00;38.83
27425;BME280;15244;49.088;11.886;2022-07-22T09:51:56;96097.81;;;29.20;39.19
27425;BME280;15244;49.088;11.886;2022-07-22T09:57:09;96096.38;;;29.36;38.42
27425;BME280;15244;49.088;11.886;2022-07-22T10:02:13;96095.06;;;29.31;35.63
27425;BME280;15244;49.088;11.886;2022-07-22T10:07:16;96081.38;;;29.45;37.20
27425;BME280;15244;49.088;11.886;2022-07-22T10:12:19;96091.94;;;29.55;37.22
27425;BME280;15244;49.088;11.886;2022-07-22T10:17:23;96082.50;;;29.58;36.68
27425;BME280;15244;49.088;11.886;2022-07-22T10:27:45;96074.94;;;29.70;36.33
27425;BME280;15244;49.088;11.886;2022-07-22T10:33:13;96081.91;;;29.86;37.42
27425;BME280;15244;49.088;11.886;2022-07-22T10:38:16;96084.28;;;30.10;37.14
27425;BME280;15244;49.088;11.886;2022-07-22T10:53:58;96069.56;;;30.32;36.31
27425;BME280;15244;49.088;11.886;2022-07-22T10:59:11;96066.00;;;30.37;34.80
27425;BME280;15244;49.088;11.886;2022-07-22T11:04:21;96059.66;;;30.54;35.16
27425;BME280;15244;49.088;11.886;2022-07-22T11:09:32;96050.44;;;30.59;34.98
27425;BME280;15244;49.088;11.886;2022-07-22T11:14:35;96049.44;;;30.62;35.11
27425;BME280;15244;49.088;11.886;2022-07-22T11:19:38;96036.13;;;30.74;34.54
27425;BME280;15244;49.088;11.886;2022-07-22T11:24:40;96036.16;;;30.91;34.68
27425;BME280;15244;49.088;11.886;2022-07-22T11:29:42;96030.50;;;31.13;34.73
27425;BME280;15244;49.088;11.886;2022-07-22T11:34:48;96026.38;;;31.31;34.38
27425;BME280;15244;49.088;11.886;2022-07-22T11:39:51;96024.59;;;31.45;34.58
27425;BME280;15244;49.088;11.886;2022-07-22T11:44:53;96014.53;;;31.66;34.42
27425;BME280;15244;49.088;11.886;2022-07-22T11:49:55;96010.09;;;31.82;33.03
27425;BME280;15244;49.088;11.886;2022-07-22T11:54:57;96002.13;;;31.92;32.37
27425;BME280;15244;49.088;11.886;2022-07-22T12:00:06;95999.81;;;32.02;32.41
27425;BME280;15244;49.088;11.886;2022-07-22T12:05:12;95995.09;;;32.15;32.99
27425;BME280;15244;49.088;11.886;2022-07-22T12:10:34;95984.22;;;32.31;31.53
27425;BME280;15244;49.088;11.886;2022-07-22T12:15:36;95976.97;;;32.47;31.40
27425;BME280;15244;49.088;11.886;2022-07-22T12:20:48;95976.66;;;32.56;30.92
27425;BME280;15244;49.088;11.886;2022-07-22T12:25:59;95968.72;;;32.54;29.80
27425;BME280;15244;49.088;11.886;2022-07-22T12:31:02;95968.41;;;32.58;30.01
27425;BME280;15244;49.088;11.886;2022-07-22T12:36:06;95959.91;;;32.64;29.75
27425;BME280;15244;49.088;11.886;2022-07-22T12:41:22;95963.66;;;32.77;30.64
27425;BME280;15244;49.088;11.886;2022-07-22T12:46:25;95961.28;;;32.81;29.62
27425;BME280;15244;49.088;11.886;2022-07-22T12:51:27;95947.38;;;32.89;30.03
27425;BME280;15244;49.088;11.886;2022-07-22T12:56:29;95948.78;;;33.07;30.01
27425;BME280;15244;49.088;11.886;2022-07-22T13:01:36;95945.00;;;33.23;29.72
27425;BME280;15244;49.088;11.886;2022-07-22T13:06:39;95939.41;;;33.42;29.31
27425;BME280;15244;49.088;11.886;2022-07-22T13:11:41;95937.69;;;33.58;29.43
27425;BME280;15244;49.088;11.886;2022-07-22T13:16:47;95928.75;;;33.73;29.01
27425;BME280;15244;49.088;11.886;2022-07-22T13:21:49;95933.50;;;33.84;28.80
27425;BME280;15244;49.088;11.886;2022-07-22T13:26:51;95931.81;;;33.94;27.98
27425;BME280;15244;49.088;11.886;2022-07-22T13:31:52;95916.91;;;33.94;27.83
27425;BME280;15244;49.088;11.886;2022-07-22T13:37:14;95919.72;;;33.94;27.75
27425;BME280;15244;49.088;11.886;2022-07-22T13:42:17;95916.06;;;33.99;26.74
27425;BME280;15244;49.088;11.886;2022-07-22T13:47:20;95917.44;;;33.92;27.26
27425;BME280;15244;49.088;11.886;2022-07-22T13:52:22;95908.66;;;33.96;27.22
27425;BME280;15244;49.088;11.886;2022-07-22T13:57:24;95901.31;;;33.87;26.76
27425;BME280;15244;49.088;11.886;2022-07-22T14:02:26;95896.56;;;33.95;26.47
27425;BME280;15244;49.088;11.886;2022-07-22T14:07:28;95893.56;;;34.06;26.66
27425;BME280;15244;49.088;11.886;2022-07-22T14:12:29;95880.88;;;34.13;26.87
27425;BME280;15244;49.088;11.886;2022-07-22T14:17:31;95884.84;;;34.23;26.75
27425;BME280;15244;49.088;11.886;2022-07-22T14:22:33;95885.56;;;34.43;26.78
27425;BME280;15244;49.088;11.886;2022-07-22T14:27:35;95885.53;;;34.62;26.39
27425;BME280;15244;49.088;11.886;2022-07-22T14:32:37;95872.81;;;34.82;26.75
27425;BME280;15244;49.088;11.886;2022-07-22T14:37:38;95877.84;;;35.02;26.55
27425;BME280;15244;49.088;11.886;2022-07-22T14:42:40;95883.63;;;35.23;26.28
27425;BME280;15244;49.088;11.886;2022-07-22T14:47:42;95874.00;;;35.39;25.67
27425;BME280;15244;49.088;11.886;2022-07-22T14:52:53;95873.91;;;35.58;25.81
27425;BME280;15244;49.088;11.886;2022-07-22T14:57:54;95867.66;;;35.73;25.71
27425;BME280;15244;49.088;11.886;2022-07-22T15:02:56;95866.66;;;35.84;24.14
27425;BME280;15244;49.088;11.886;2022-07-22T15:07:58;95854.41;;;35.89;24.13
27425;BME280;15244;49.088;11.886;2022-07-22T15:13:00;95862.16;;;35.89;23.59
27425;BME280;15244;49.088;11.886;2022-07-22T15:18:02;95854.06;;;35.93;24.25
27425;BME280;15244;49.088;11.886;2022-07-22T15:23:04;95854.34;;;36.02;23.98
27425;BME280;15244;49.088;11.886;2022-07-22T15:28:09;95852.44;;;36.18;23.73
27425;BME280;15244;49.088;11.886;2022-07-22T15:33:31;95848.09;;;36.38;23.93
27425;BME280;15244;49.088;11.886;2022-07-22T15:38:38;95842.13;;;36.50;23.20
27425;BME280;15244;49.088;11.886;2022-07-22T15:43:40;95844.50;;;36.59;23.21
27425;BME280;15244;49.088;11.886;2022-07-22T15:48:42;95834.03;;;36.75;23.12
27425;BME280;15244;49.088;11.886;2022-07-22T15:53:45;95840.75;;;36.93;22.67
27425;BME280;15244;49.088;11.886;2022-07-22T15:58:47;95831.41;;;37.05;22.42
27425;BME280;15244;49.088;11.886;2022-07-22T16:04:27;95817.44;;;37.15;21.95
27425;BME280;15244;49.088;11.886;2022-07-22T16:09:29;95819.34;;;37.20;22.23
27425;BME280;15244;49.088;11.886;2022-07-22T16:14:31;95811.97;;;37.25;22.39
27425;BME280;15244;49.088;11.886;2022-07-22T16:19:33;95818.09;;;37.37;22.25
27425;BME280;15244;49.088;11.886;2022-07-22T16:24:34;95812.81;;;37.48;22.36
27425;BME280;15244;49.088;11.886;2022-07-22T16:29:36;95818.38;;;37.62;22.17
27425;BME280;15244;49.088;11.886;2022-07-22T16:34:38;95805.53;;;37.76;21.97
27425;BME280;15244;49.088;11.886;2022-07-22T16:39:39;95813.72;;;37.87;22.04
27425;BME280;15244;49.088;11.886;2022-07-22T16:44:41;95792.69;;;37.98;21.77
27425;BME280;15244;49.088;11.886;2022-07-22T16:49:43;95798.59;;;38.08;21.34
27425;BME280;15244;49.088;11.886;2022-07-22T16:54:44;95786.66;;;38.17;20.71
27425;BME280;15244;49.088;11.886;2022-07-22T16:59:46;95785.16;;;38.24;20.63
27425;BME280;15244;49.088;11.886;2022-07-22T17:04:48;95784.56;;;38.33;20.92
27425;BME280;15244;49.088;11.886;2022-07-22T17:09:50;95779.44;;;38.39;20.28
27425;BME280;15244;49.088;11.886;2022-07-22T17:14:51;95777.94;;;38.46;20.69
27425;BME280;15244;49.088;11.886;2022-07-22T17:19:53;95775.66;;;38.52;20.64
27425;BME280;15244;49.088;11.886;2022-07-22T17:24:55;95776.03;;;38.56;20.15
27425;BME280;15244;49.088;11.886;2022-07-22T17:29:57;95769.38;;;38.61;20.64
27425;BME280;15244;49.088;11.886;2022-07-22T17:35:00;95763.28;;;38.65;20.12
27425;BME280;15244;49.088;11.886;2022-07-22T17:40:20;95754.16;;;38.66;19.95
27425;BME280;15244;49.088;11.886;2022-07-22T17:45:23;95746.56;;;38.69;19.84
27425;BME280;15244;49.088;11.886;2022-07-22T17:50:39;95738.19;;;38.71;20.40
27425;BME280;15244;49.088;11.886;2022-07-22T17:55:42;95732.31;;;38.69;20.61
27425;BME280;15244;49.088;11.886;2022-07-22T18:00:44;95733.13;;;38.62;20.98
27425;BME280;15244;49.088;11.886;2022-07-22T18:05:46;95732.75;;;38.50;20.84
27425;BME280;15244;49.088;11.886;2022-07-22T18:10:49;95738.78;;;38.38;21.07
27425;BME280;15244;49.088;11.886;2022-07-22T18:15:51;95741.50;;;38.21;21.54
27425;BME280;15244;49.088;11.886;2022-07-22T18:20:53;95741.47;;;37.98;21.24
27425;BME280;15244;49.088;11.886;2022-07-22T18:25:54;95742.19;;;37.68;21.29
27425;BME280;15244;49.088;11.886;2022-07-22T18:30:56;95750.03;;;37.39;22.09
27425;BME280;15244;49.088;11.886;2022-07-22T18:35:58;95755.03;;;37.09;21.87
27425;BME280;15244;49.088;11.886;2022-07-22T18:41:00;95750.72;;;36.80;21.90
27425;BME280;15244;49.088;11.886;2022-07-22T18:46:03;95758.47;;;36.51;22.93
27425;BME280;15244;49.088;11.886;2022-07-22T18:51:05;95755.84;;;36.24;22.57
27425;BME280;15244;49.088;11.886;2022-07-22T18:56:08;95772.97;;;35.97;23.07
27425;BME280;15244;49.088;11.886;2022-07-22T19:01:11;95784.09;;;35.74;23.45
27425;BME280;15244;49.088;11.886;2022-07-22T19:06:13;95781.53;;;35.50;23.68
27425;BME280;15244;49.088;11.886;2022-07-22T19:11:15;95785.97;;;35.24;23.75
27425;BME280;15244;49.088;11.886;2022-07-22T19:16:16;95791.53;;;35.03;24.05
27425;BME280;15244;49.088;11.886;2022-07-22T19:21:18;95808.44;;;34.82;24.39
27425;BME280;15244;49.088;11.886;2022-07-22T19:26:20;95813.44;;;34.63;24.80
27425;BME280;15244;49.088;11.886;2022-07-22T19:31:22;95813.50;;;34.44;25.02
27425;BME280;15244;49.088;11.886;2022-07-22T19:36:27;95817.72;;;34.24;25.09
27425;BME280;15244;49.088;11.886;2022-07-22T19:41:30;95818.06;;;34.01;25.54
27425;BME280;15244;49.088;11.886;2022-07-22T19:46:31;95821.22;;;33.79;25.56
27425;BME280;15244;49.088;11.886;2022-07-22T19:51:33;95818.97;;;33.58;26.09
27425;BME280;15244;49.088;11.886;2022-07-22T19:56:35;95827.13;;;33.43;25.92
27425;BME280;15244;49.088;11.886;2022-07-22T20:01:36;95830.16;;;33.26;26.63
27425;BME280;15244;49.088;11.886;2022-07-22T20:06:38;95840.13;;;33.08;26.69
27425;BME280;15244;49.088;11.886;2022-07-22T20:11:40;95851.84;;;32.93;26.92
27425;BME280;15244;49.088;11.886;2022-07-22T20:16:41;95869.72;;;32.77;27.27
27425;BME280;15244;49.088;11.886;2022-07-22T20:21:43;95872.72;;;32.60;27.27
27425;BME280;15244;49.088;11.886;2022-07-22T20:26:47;95877.72;;;32.43;27.68
27425;BME280;15244;49.088;11.886;2022-07-22T20:31:52;95872.19;;;32.26;28.05
27425;BME280;15244;49.088;11.886;2022-07-22T20:36:54;95881.81;;;32.11;28.10
27425;BME280;15244;49.088;11.886;2022-07-22T20:41:55;95880.63;;;32.01;28.44
27425;BME280;15244;49.088;11.886;2022-07-22T20:47:17;95871.72;;;31.86;28.60
27425;BME280;15244;49.088;11.886;2022-07-22T20:52:19;95875.13;;;31.73;28.45
27425;BME280;15244;49.088;11.886;2022-07-22T20:57:21;95874.94;;;31.60;28.54
27425;BME280;15244;49.088;11.886;2022-07-22T21:02:23;95885.22;;;31.51;29.06
27425;BME280;15244;49.088;11.886;2022-07-22T21:07:31;95881.94;;;31.42;29.51
27425;BME280;15244;49.088;11.886;2022-07-22T21:12:33;95874.03;;;31.29;29.19
27425;BME280;15244;49.088;11.886;2022-07-22T21:17:35;95872.81;;;31.13;29.59
27425;BME280;15244;49.088;11.886;2022-07-22T21:22:37;95866.44;;;31.01;29.27
27425;BME280;15244;49.088;11.886;2022-07-22T21:27:39;95868.81;;;30.86;29.10
27425;BME280;15244;49.088;11.886;2022-07-22T21:32:43;95860.13;;;30.73;29.46
27425;BME280;15244;49.088;11.886;2022-07-22T21:37:45;95861.94;;;30.64;29.53
27425;BME280;15244;49.088;11.886;2022-07-22T21:42:48;95858.34;;;30.58;29.47
27425;BME280;15244;49.088;11.886;2022-07-22T21:47:50;95863.22;;;30.52;29.54
27425;BME280;15244;49.088;11.886;2022-07-22T21:52:51;95857.63;;;30.47;30.02
27425;BME280;15244;49.088;11.886;2022-07-22T21:57:53;95859.66;;;30.40;29.74
27425;BME280;15244;49.088;11.886;2022-07-22T22:02:55;95851.22;;;30.35;29.68
27425;BME280;15244;49.088;11.886;2022-07-22T22:07:57;95852.25;;;30.32;29.72
27425;BME280;15244;49.088;11.886;2022-07-22T22:12:59;95862.22;;;30.27;29.55
27425;BME280;15244;49.088;11.886;2022-07-22T22:18:01;95870.41;;;30.25;29.90
27425;BME280;15244;49.088;11.886;2022-07-22T22:23:03;95869.34;;;30.22;30.18
27425;BME280;15244;49.088;11.886;2022-07-22T22:28:04;95866.28;;;30.20;30.34
27425;BME280;15244;49.088;11.886;2022-07-22T22:33:06;95856.31;;;30.14;30.51
27425;BME280;15244;49.088;11.886;2022-07-22T22:38:08;95863.22;;;30.07;30.29
27425;BME280;15244;49.088;11.886;2022-07-22T22:43:09;95865.53;;;30.03;30.77
27425;BME280;15244;49.088;11.886;2022-07-22T22:48:11;95866.25;;;29.98;30.53
27425;BME280;15244;49.088;11.886;2022-07-22T22:53:13;95874.69;;;29.92;30.64
27425;BME280;15244;49.088;11.886;2022-07-22T22:58:14;95888.25;;;29.88;30.56
27425;BME280;15244;49.088;11.886;2022-07-22T23:03:23;95883.38;;;29.83;30.85
27425;BME280;15244;49.088;11.886;2022-07-22T23:08:25;95890.53;;;29.78;31.12
27425;BME280;15244;49.088;11.886;2022-07-22T23:13:27;95888.72;;;29.75;31.28
27425;BME280;15244;49.088;11.886;2022-07-22T23:18:28;95882.31;;;29.69;31.38
27425;BME280;15244;49.088;11.886;2022-07-22T23:23:32;95871.53;;;29.62;31.04
27425;BME280;15244;49.088;11.886;2022-07-22T23:28:34;95861.59;;;29.55;30.88
27425;BME280;15244;49.088;11.886;2022-07-22T23:33:36;95865.38;;;29.47;30.95
27425;BME280;15244;49.088;11.886;2022-07-22T23:38:37;95854.13;;;29.41;31.19
27425;BME280;15244;49.088;11.886;2022-07-22T23:43:39;95859.22;;;29.37;31.63
27425;BME280;15244;49.088;11.886;2022-07-22T23:48:41;95855.38;;;29.34;31.69
27425;BME280;15244;49.088;11.886;2022-07-22T23:53:43;95854.13;;;29.30;31.92
27425;BME280;15244;49.088;11.886;2022-07-22T23:58:44;95838.00;;;29.25;32.26
